createdAt,value
2018-01-21T00:02:04.263Z,27.02
2018-01-21T00:04:31.792Z,27.83
2018-01-21T00:07:00.091Z,27.35
2018-01-21T00:09:27.631Z,27.40
2018-01-21T00:11:55.178Z,26.50
2018-01-21T00:14:22.709Z,27.80
2018-01-21T00:16:50.249Z,27.80
2018-01-21T00:19:17.786Z,27.97
2018-01-21T00:21:45.321Z,29.87
2018-01-21T00:24:13.642Z,28.30
2018-01-21T00:26:42.585Z,29.60
2018-01-21T00:29:10.105Z,27.17
2018-01-21T00:31:37.640Z,30.00
2018-01-21T00:34:06.831Z,28.03
2018-01-21T00:36:34.422Z,28.77
2018-01-21T00:39:01.943Z,28.47
2018-01-21T00:41:29.476Z,30.77
2018-01-21T00:43:57.668Z,29.40
2018-01-21T00:46:25.631Z,27.97
2018-01-21T00:48:54.933Z,29.50
2018-01-21T00:51:22.915Z,31.20
2018-01-21T00:53:50.484Z,30.37
2018-01-21T00:56:18.031Z,29.97
2018-01-21T00:58:50.450Z,29.20
2018-01-21T01:01:18.804Z,30.53
2018-01-21T01:03:46.329Z,29.83
2018-01-21T01:06:13.844Z,30.57
2018-01-21T01:08:41.382Z,29.53
2018-01-21T01:11:08.903Z,26.60
2018-01-21T01:13:36.454Z,27.63
2018-01-21T01:16:03.973Z,28.42
2018-01-21T01:18:31.510Z,28.40
2018-01-21T01:20:59.061Z,27.10
2018-01-21T01:23:27.427Z,28.27
2018-01-21T01:25:55.211Z,25.90
2018-01-21T01:28:22.804Z,26.60
2018-01-21T01:30:50.384Z,27.13
2018-01-21T01:33:17.924Z,25.60
2018-01-21T01:35:46.213Z,28.58
2018-01-21T01:38:13.753Z,25.67
2018-01-21T01:40:41.272Z,27.17
2018-01-21T01:43:10.356Z,24.97
2018-01-21T01:45:37.876Z,26.10
2018-01-21T01:48:05.404Z,24.50
2018-01-21T01:50:32.935Z,24.80
2018-01-21T01:53:00.548Z,24.40
2018-01-21T01:55:28.530Z,24.97
2018-01-21T01:57:57.293Z,25.13
2018-01-21T02:00:26.062Z,21.67
2018-01-21T02:02:56.068Z,25.97
2018-01-21T02:05:24.552Z,23.43
2018-01-21T02:07:53.539Z,22.90
2018-01-21T02:10:21.172Z,22.97
2018-01-21T02:12:48.678Z,23.70
2018-01-21T02:15:16.202Z,24.00
2018-01-21T02:17:45.407Z,23.20
2018-01-21T02:20:12.939Z,24.73
2018-01-21T02:22:41.230Z,22.70
2018-01-21T02:25:08.739Z,23.37
2018-01-21T02:27:38.857Z,21.70
2018-01-21T02:30:06.400Z,23.03
2018-01-21T02:32:33.927Z,23.77
2018-01-21T02:35:02.236Z,22.40
2018-01-21T02:37:29.988Z,23.60
2018-01-21T02:39:57.734Z,24.90
2018-01-21T02:42:25.682Z,24.97
2018-01-21T02:44:56.152Z,22.60
2018-01-21T02:47:29.043Z,23.50
2018-01-21T02:49:56.929Z,23.60
2018-01-21T02:52:25.152Z,24.13
2018-01-21T02:54:53.252Z,24.73
2018-01-21T02:57:20.808Z,25.12
2018-01-21T02:59:48.433Z,25.80
2018-01-21T03:02:16.105Z,24.40
2018-01-21T03:04:43.624Z,25.00
2018-01-21T03:07:11.139Z,25.80
2018-01-21T03:09:38.673Z,25.27
2018-01-21T03:12:06.952Z,26.03
2018-01-21T03:14:34.479Z,25.97
2018-01-21T03:17:02.773Z,25.70
2018-01-21T03:19:30.304Z,24.33
2018-01-21T03:21:57.968Z,25.70
2018-01-21T03:24:26.576Z,26.77
2018-01-21T03:26:54.888Z,24.90
2018-01-21T03:29:22.495Z,24.10
2018-01-21T03:31:50.039Z,25.97
2018-01-21T03:34:18.337Z,26.20
2018-01-21T03:36:46.428Z,25.00
2018-01-21T03:39:13.960Z,25.77
2018-01-21T03:41:41.497Z,25.30
2018-01-21T03:44:09.020Z,25.90
2018-01-21T03:46:36.551Z,26.50
2018-01-21T03:49:04.064Z,26.43
2018-01-21T03:51:31.595Z,26.83
2018-01-21T03:53:59.236Z,26.70
2018-01-21T03:56:27.234Z,28.38
2018-01-21T03:58:55.558Z,27.20
2018-01-21T04:01:24.351Z,26.03
2018-01-21T04:03:51.908Z,29.37
2018-01-21T04:06:20.218Z,26.43
2018-01-21T04:08:47.745Z,27.13
2018-01-21T04:11:15.280Z,26.03
2018-01-21T04:13:42.793Z,26.55
2018-01-21T04:16:11.091Z,26.57
2018-01-21T04:18:38.604Z,29.27
2018-01-21T04:21:06.900Z,28.83
2018-01-21T04:23:34.440Z,27.30
2018-01-21T04:26:01.958Z,29.03
2018-01-21T04:28:30.304Z,28.47
2018-01-21T04:30:58.840Z,26.90
2018-01-21T04:33:27.244Z,29.93
2018-01-21T04:35:55.983Z,28.90
2018-01-21T04:38:23.620Z,28.90
2018-01-21T04:40:51.175Z,29.80
2018-01-21T04:43:18.701Z,29.30
2018-01-21T04:45:47.908Z,28.83
2018-01-21T04:48:15.435Z,28.43
2018-01-21T04:50:42.953Z,31.13
2018-01-21T04:53:10.484Z,29.80
2018-01-21T04:55:38.771Z,29.83
2018-01-21T04:58:06.316Z,28.23
2018-01-21T05:00:33.831Z,28.73
2018-01-21T05:03:02.116Z,29.60
2018-01-21T05:05:29.862Z,30.07
2018-01-21T05:07:57.619Z,29.75
2018-01-21T05:10:25.988Z,31.43
2018-01-21T05:12:54.196Z,29.65
2018-01-21T05:15:21.809Z,28.77
2018-01-21T05:17:49.328Z,28.80
2018-01-21T05:20:16.865Z,28.17
2018-01-21T05:22:44.385Z,28.40
2018-01-21T05:25:12.675Z,27.60
2018-01-21T05:27:40.196Z,27.93
2018-01-21T05:30:08.491Z,27.77
2018-01-21T05:32:36.018Z,26.77
2018-01-21T05:35:05.135Z,27.07
2018-01-21T05:37:32.665Z,28.90
2018-01-21T05:40:00.208Z,28.47
2018-01-21T05:42:27.753Z,28.87
2018-01-21T05:44:56.187Z,28.27
2018-01-21T05:47:25.232Z,31.17
2018-01-21T05:49:54.139Z,29.47
2018-01-21T05:52:21.740Z,27.80
2018-01-21T05:54:49.275Z,26.23
2018-01-21T05:57:16.808Z,29.77
2018-01-21T05:59:44.375Z,28.67
2018-01-21T06:02:11.903Z,28.80
2018-01-21T06:04:39.445Z,28.40
2018-01-21T06:07:06.986Z,29.43
2018-01-21T06:09:34.516Z,27.30
2018-01-21T06:12:02.181Z,27.20
2018-01-21T06:14:29.708Z,27.42
2018-01-21T06:16:58.134Z,28.57
2018-01-21T06:19:26.287Z,24.10
2018-01-21T06:21:54.641Z,27.30
2018-01-21T06:24:22.176Z,27.57
2018-01-21T06:26:49.689Z,26.97
2018-01-21T06:29:17.224Z,26.48
2018-01-21T06:31:44.744Z,25.70
2018-01-21T06:34:13.048Z,28.20
2018-01-21T06:36:40.564Z,26.93
2018-01-21T06:39:08.087Z,29.10
2018-01-21T06:41:36.372Z,27.77
2018-01-21T06:44:03.904Z,29.87
2018-01-21T06:46:31.423Z,28.13
2018-01-21T06:48:59.270Z,26.40
2018-01-21T06:51:27.096Z,26.33
2018-01-21T06:53:55.307Z,30.05
2018-01-21T06:56:23.014Z,27.13
2018-01-21T06:58:51.320Z,26.33
2018-01-21T07:01:19.643Z,28.27
2018-01-21T07:03:47.164Z,24.50
2018-01-21T07:06:14.696Z,25.53
2018-01-21T07:08:42.216Z,26.33
2018-01-21T07:11:10.512Z,25.93
2018-01-21T07:13:38.024Z,21.77
2018-01-21T07:16:05.560Z,24.17
2018-01-21T07:18:33.838Z,24.67
2018-01-21T07:21:01.408Z,25.15
2018-01-21T07:23:28.923Z,26.03
2018-01-21T07:25:56.535Z,21.40
2018-01-21T07:28:24.251Z,24.67
2018-01-21T07:30:51.852Z,21.63
2018-01-21T07:33:19.371Z,24.27
2018-01-21T07:35:46.980Z,21.97
2018-01-21T07:38:14.498Z,23.87
2018-01-21T07:40:42.031Z,20.10
2018-01-21T07:43:10.315Z,22.92
2018-01-21T07:45:37.843Z,22.13
2018-01-21T07:48:05.371Z,22.33
2018-01-21T07:50:33.683Z,22.40
2018-01-21T07:53:01.196Z,25.53
2018-01-21T07:55:28.746Z,24.60
2018-01-21T07:57:56.603Z,28.00
2018-01-21T08:00:25.375Z,27.90
2018-01-21T08:02:53.620Z,25.17
2018-01-21T08:05:21.300Z,23.40
2018-01-21T08:07:48.836Z,23.57
2018-01-21T08:10:16.348Z,27.47
2018-01-21T08:12:44.640Z,26.43
2018-01-21T08:15:12.160Z,25.50
2018-01-21T08:17:39.688Z,25.70
2018-01-21T08:20:07.967Z,25.70
2018-01-21T08:22:35.536Z,25.35
2018-01-21T08:25:03.341Z,23.20
2018-01-21T08:27:31.672Z,24.07
2018-01-21T08:29:59.548Z,27.13
2018-01-21T08:32:27.501Z,25.17
2018-01-21T08:35:01.296Z,26.00
2018-01-21T08:37:35.312Z,28.80
2018-01-21T08:40:08.598Z,27.70
2018-01-21T08:42:36.123Z,25.10
2018-01-21T08:45:04.409Z,25.37
2018-01-21T08:47:31.950Z,25.27
2018-01-21T08:50:00.257Z,25.50
2018-01-21T08:52:29.196Z,24.57
2018-01-21T08:54:57.874Z,25.70
2018-01-21T08:57:25.891Z,24.57
2018-01-21T08:59:55.142Z,24.77
2018-01-21T09:02:22.678Z,26.20
2018-01-21T09:04:52.005Z,23.83
2018-01-21T09:07:20.292Z,23.67
2018-01-21T09:09:47.824Z,24.10
2018-01-21T09:12:16.109Z,25.50
2018-01-21T09:14:43.660Z,26.40
2018-01-21T09:17:11.172Z,26.77
2018-01-21T09:19:39.492Z,26.20
2018-01-21T09:22:07.117Z,28.27
2018-01-21T09:24:34.708Z,29.53
2018-01-21T09:27:02.225Z,28.25
2018-01-21T09:29:29.852Z,27.87
2018-01-21T09:31:57.824Z,26.37
2018-01-21T09:34:25.646Z,26.75
2018-01-21T09:36:53.991Z,28.27
2018-01-21T09:39:21.652Z,29.20
2018-01-21T09:41:49.187Z,28.60
2018-01-21T09:44:16.706Z,29.50
2018-01-21T09:46:44.996Z,27.57
2018-01-21T09:49:12.514Z,26.92
2018-01-21T09:51:40.823Z,29.10
2018-01-21T09:54:08.368Z,27.00
2018-01-21T09:56:35.905Z,27.33
2018-01-21T09:59:03.420Z,25.60
2018-01-21T10:01:30.936Z,24.67
2018-01-21T10:03:58.684Z,24.23
2018-01-21T10:06:26.512Z,24.60
2018-01-21T10:08:54.748Z,26.87
2018-01-21T10:11:22.367Z,27.83
2018-01-21T10:13:50.074Z,27.60
2018-01-21T10:16:17.590Z,24.90
2018-01-21T10:18:45.170Z,25.37
2018-01-21T10:21:12.701Z,25.43
2018-01-21T10:23:41.036Z,25.35
2018-01-21T10:26:08.552Z,26.10
2018-01-21T10:28:36.105Z,23.67
2018-01-21T10:31:04.416Z,26.07
2018-01-21T10:33:32.038Z,26.77
2018-01-21T10:36:00.729Z,25.98
2018-01-21T10:38:28.968Z,25.40
2018-01-21T10:40:57.874Z,25.30
2018-01-21T10:43:25.923Z,27.10
2018-01-21T10:45:54.423Z,25.52
2018-01-21T10:48:22.125Z,25.23
2018-01-21T10:50:49.665Z,29.07
2018-01-21T10:53:17.180Z,29.50
2018-01-21T10:55:44.712Z,27.20
2018-01-21T10:58:12.991Z,27.10
2018-01-21T11:00:46.139Z,28.03
2018-01-21T11:03:14.425Z,26.43
2018-01-21T11:05:42.012Z,25.87
2018-01-21T11:08:09.544Z,27.63
2018-01-21T11:10:37.077Z,29.63
2018-01-21T11:13:04.597Z,29.58
2018-01-21T11:15:32.133Z,26.77
2018-01-21T11:18:00.438Z,27.20
2018-01-21T11:20:28.188Z,27.00
2018-01-21T11:22:55.911Z,25.52
2018-01-21T11:25:24.134Z,24.53
2018-01-21T11:27:51.656Z,25.20
2018-01-21T11:30:19.281Z,25.47
2018-01-21T11:32:46.873Z,27.90
2018-01-21T11:35:14.404Z,28.70
2018-01-21T11:37:41.920Z,25.80
2018-01-21T11:40:09.455Z,26.37
2018-01-21T11:42:36.973Z,28.80
2018-01-21T11:45:04.504Z,28.30
2018-01-21T11:47:32.792Z,28.87
2018-01-21T11:50:00.348Z,28.13
2018-01-21T11:52:27.945Z,28.50
2018-01-21T11:54:55.750Z,29.58
2018-01-21T11:57:25.244Z,26.10
2018-01-21T11:59:52.833Z,27.60
2018-01-21T12:02:20.417Z,30.60
2018-01-21T12:04:47.928Z,26.50
2018-01-21T12:07:16.227Z,27.33
2018-01-21T12:09:43.739Z,26.20
2018-01-21T12:12:12.092Z,23.97
2018-01-21T12:14:40.379Z,25.30
2018-01-21T12:17:07.907Z,28.17
2018-01-21T12:19:36.216Z,26.80
2018-01-21T12:22:03.748Z,24.23
2018-01-21T12:24:31.260Z,23.90
2018-01-21T12:26:59.761Z,26.60
2018-01-21T12:29:27.570Z,25.17
2018-01-21T12:31:56.801Z,26.70
2018-01-21T12:34:24.516Z,27.37
2018-01-21T12:36:52.124Z,27.00
2018-01-21T12:39:19.665Z,26.53
2018-01-21T12:41:47.184Z,26.37
2018-01-21T12:44:14.725Z,26.93
2018-01-21T12:46:42.243Z,28.23
2018-01-21T12:49:09.772Z,28.73
2018-01-21T12:51:38.052Z,29.02
2018-01-21T12:54:05.596Z,30.33
2018-01-21T12:56:33.111Z,30.63
2018-01-21T12:59:00.708Z,28.52
2018-01-21T13:01:28.227Z,30.93
2018-01-21T13:03:57.300Z,31.77
2018-01-21T13:06:25.260Z,28.30
2018-01-21T13:08:52.834Z,27.73
2018-01-21T13:11:20.431Z,28.83
2018-01-21T13:13:48.716Z,31.52
2018-01-21T13:16:16.360Z,30.37
2018-01-21T13:18:43.888Z,29.80
2018-01-21T13:21:12.189Z,29.13
2018-01-21T13:23:39.708Z,29.20
2018-01-21T13:26:07.237Z,26.65
2018-01-21T13:28:35.516Z,26.97
2018-01-21T13:31:03.052Z,25.58
2018-01-21T13:33:30.628Z,26.13
2018-01-21T13:35:58.259Z,26.80
2018-01-21T13:38:26.579Z,26.17
2018-01-21T13:40:54.513Z,26.10
2018-01-21T13:43:22.244Z,27.70
2018-01-21T13:45:49.759Z,25.83
2018-01-21T13:48:17.308Z,27.70
2018-01-21T13:50:44.860Z,28.03
2018-01-21T13:53:12.392Z,29.85
2018-01-21T13:55:39.907Z,26.00
2018-01-21T13:58:08.228Z,25.43
2018-01-21T14:00:35.803Z,26.30
2018-01-21T14:03:03.328Z,28.33
2018-01-21T14:05:30.882Z,28.53
2018-01-21T14:07:58.432Z,28.97
2018-01-21T14:10:26.259Z,25.23
2018-01-21T14:12:54.726Z,27.10
2018-01-21T14:15:22.248Z,27.43
2018-01-21T14:17:49.775Z,29.27
2018-01-21T14:20:17.352Z,28.50
2018-01-21T14:22:44.894Z,27.47
2018-01-21T14:25:12.436Z,27.67
2018-01-21T14:27:39.966Z,25.83
2018-01-21T14:30:07.484Z,30.23
2018-01-21T14:32:35.763Z,31.23
2018-01-21T14:35:03.295Z,29.12
2018-01-21T14:37:30.812Z,30.27
2018-01-21T14:39:58.829Z,30.63
2018-01-21T14:42:29.088Z,32.03
2018-01-21T14:44:58.734Z,29.80
2018-01-21T14:47:26.435Z,30.62
2018-01-21T14:49:54.106Z,29.60
2018-01-21T14:52:21.648Z,30.53
2018-01-21T14:54:49.216Z,29.40
2018-01-21T14:57:16.741Z,29.40
2018-01-21T14:59:44.312Z,29.13
2018-01-21T15:02:11.848Z,30.58
2018-01-21T15:04:39.393Z,30.80
2018-01-21T15:07:06.927Z,31.83
2018-01-21T15:09:34.459Z,33.30
2018-01-21T15:12:02.203Z,31.33
2018-01-21T15:14:29.730Z,31.10
2018-01-21T15:16:58.125Z,32.53
2018-01-21T15:19:25.840Z,30.50
2018-01-21T15:21:55.093Z,27.50
2018-01-21T15:24:24.737Z,29.00
2018-01-21T15:26:52.349Z,26.30
2018-01-21T15:29:19.904Z,26.60
2018-01-21T15:31:48.224Z,29.27
2018-01-21T15:34:15.735Z,29.67
2018-01-21T15:36:43.259Z,25.80
2018-01-21T15:39:11.566Z,24.00
2018-01-21T15:41:39.100Z,26.10
2018-01-21T15:44:06.616Z,28.38
2018-01-21T15:46:34.920Z,26.70
2018-01-21T15:49:02.491Z,31.43
2018-01-21T15:51:30.117Z,31.30
2018-01-21T15:54:00.269Z,26.93
2018-01-21T15:56:28.343Z,29.07
2018-01-21T15:58:56.461Z,29.23
2018-01-21T16:01:24.144Z,29.80
2018-01-21T16:03:51.689Z,28.53
2018-01-21T16:06:19.219Z,26.60
2018-01-21T16:08:47.536Z,29.60
2018-01-21T16:11:15.060Z,28.52
2018-01-21T16:13:42.656Z,29.60
2018-01-21T16:16:10.260Z,28.73
2018-01-21T16:18:37.796Z,28.37
2018-01-21T16:21:05.313Z,28.50
2018-01-21T16:23:32.857Z,28.20
2018-01-21T16:26:00.369Z,29.75
2018-01-21T16:28:27.945Z,29.40
2018-01-21T16:30:58.208Z,29.37
2018-01-21T16:33:25.776Z,29.20
2018-01-21T16:35:54.607Z,29.70
2018-01-21T16:38:34.880Z,28.73
2018-01-21T16:41:02.417Z,27.53
2018-01-21T16:43:29.959Z,31.33
2018-01-21T16:45:57.772Z,27.20
2018-01-21T16:48:26.869Z,27.60
2018-01-21T16:50:54.431Z,24.10
2018-01-21T16:53:22.036Z,25.30
2018-01-21T16:55:49.567Z,23.70
2018-01-21T16:58:17.087Z,25.23
2018-01-21T17:00:44.636Z,25.50
2018-01-21T17:03:12.147Z,24.27
2018-01-21T17:05:39.676Z,28.33
2018-01-21T17:08:07.199Z,28.15
2018-01-21T17:10:36.777Z,29.60
2018-01-21T17:13:04.354Z,27.63
2018-01-21T17:15:31.924Z,26.27
2018-01-21T17:18:00.495Z,25.57
2018-01-21T17:20:28.032Z,30.73
2018-01-21T17:22:56.283Z,32.97
2018-01-21T17:25:24.492Z,32.90
2018-01-21T17:27:52.987Z,31.90
2018-01-21T17:30:20.767Z,33.87
2018-01-21T17:32:48.340Z,32.80
2018-01-21T17:35:16.624Z,35.93
2018-01-21T17:37:44.976Z,33.70
2018-01-21T17:40:13.288Z,32.47
2018-01-21T17:42:40.932Z,34.38
2018-01-21T17:45:08.443Z,33.93
2018-01-21T17:47:35.980Z,36.00
2018-01-21T17:50:04.581Z,34.17
2018-01-21T17:52:32.281Z,33.00
2018-01-21T17:54:59.927Z,37.87
2018-01-21T17:57:28.280Z,35.47
2018-01-21T17:59:55.852Z,34.17
2018-01-21T18:02:24.785Z,33.70
2018-01-21T18:04:53.124Z,34.10
2018-01-21T18:07:20.700Z,34.90
2018-01-21T18:09:48.248Z,32.57
2018-01-21T18:12:15.803Z,34.57
2018-01-21T18:14:43.359Z,34.13
2018-01-21T18:17:11.640Z,34.17
2018-01-21T18:19:39.949Z,35.47
2018-01-21T18:22:07.464Z,32.63
2018-01-21T18:24:35.000Z,34.23
2018-01-21T18:27:03.356Z,33.67
2018-01-21T18:29:30.944Z,34.42
2018-01-21T18:31:59.746Z,37.10
2018-01-21T18:34:28.064Z,35.43
2018-01-21T18:36:55.974Z,36.27
2018-01-21T18:39:23.588Z,34.80
2018-01-21T18:41:51.099Z,35.73
2018-01-21T18:44:18.632Z,35.17
2018-01-21T18:46:46.219Z,35.93
2018-01-21T18:49:13.867Z,34.30
2018-01-21T18:51:41.406Z,36.43
2018-01-21T18:54:09.240Z,35.53
2018-01-21T18:56:36.809Z,34.07
2018-01-21T18:59:04.331Z,33.93
2018-01-21T19:01:31.960Z,34.83
2018-01-21T19:03:59.484Z,32.33
2018-01-21T19:06:27.800Z,32.90
2018-01-21T19:08:55.509Z,32.10
2018-01-21T19:11:23.099Z,31.50
2018-01-21T19:13:50.629Z,29.17
2018-01-21T19:16:18.274Z,30.80
2018-01-21T19:18:45.799Z,31.87
2018-01-21T19:21:13.337Z,33.87
2018-01-21T19:23:40.855Z,28.73
2018-01-21T19:26:10.265Z,31.10
2018-01-21T19:28:37.808Z,32.25
2018-01-21T19:31:05.342Z,28.10
2018-01-21T19:33:32.876Z,24.45
2018-01-21T19:36:01.201Z,23.10
2018-01-21T19:41:32.693Z,22.20
2018-01-21T19:44:04.031Z,22.83
2018-01-21T19:46:31.553Z,23.67
2018-01-21T19:48:59.873Z,21.43
2018-01-21T19:51:28.201Z,20.60
2018-01-21T19:53:55.886Z,21.07
2018-01-21T19:56:23.491Z,22.87
2018-01-21T19:58:51.039Z,21.20
2018-01-21T20:01:18.556Z,23.60
2018-01-21T20:03:46.965Z,22.90
2018-01-21T20:06:15.540Z,26.50
2018-01-21T20:08:43.100Z,26.10
2018-01-21T20:11:10.652Z,27.00
2018-01-21T20:13:38.181Z,25.00
2018-01-21T20:16:05.711Z,25.80
2018-01-21T20:18:33.338Z,27.10
2018-01-21T20:21:00.872Z,24.87
2018-01-21T20:23:28.395Z,28.07
2018-01-21T20:25:58.472Z,28.00
2018-01-21T20:28:27.654Z,27.83
2018-01-21T20:30:56.164Z,26.97
2018-01-21T20:33:24.059Z,27.00
2018-01-21T20:35:51.591Z,25.10
2018-01-21T20:38:19.143Z,26.93
2018-01-21T20:40:46.684Z,27.60
2018-01-21T20:43:14.217Z,26.70
2018-01-21T20:45:41.752Z,26.40
2018-01-21T20:48:09.265Z,25.70
2018-01-21T20:50:37.583Z,25.00
2018-01-21T20:53:12.268Z,24.50
2018-01-21T20:55:39.800Z,22.05
2018-01-21T20:58:07.407Z,24.60
2018-01-21T21:00:34.932Z,22.43
2018-01-21T21:03:02.467Z,22.30
2018-01-21T21:05:29.988Z,23.25
2018-01-21T21:07:57.539Z,23.60
2018-01-21T21:10:25.170Z,22.47
2018-01-21T21:12:52.711Z,21.10
2018-01-21T21:15:21.012Z,22.33
2018-01-21T21:17:48.556Z,23.10
2018-01-21T21:20:16.074Z,22.77
2018-01-21T21:22:43.604Z,20.37
2018-01-21T21:25:11.889Z,19.70
2018-01-21T21:27:39.420Z,20.27
2018-01-21T21:30:06.970Z,22.10
2018-01-21T21:32:34.500Z,21.77
2018-01-21T21:35:02.110Z,20.50
2018-01-21T21:37:29.672Z,19.70
2018-01-21T21:39:57.239Z,22.60
2018-01-21T21:42:24.802Z,19.42
2018-01-21T21:44:52.428Z,19.23
2018-01-21T21:47:19.964Z,18.90
2018-01-21T21:49:47.508Z,18.30
2018-01-21T21:52:15.787Z,19.00
2018-01-21T21:54:43.320Z,20.30
2018-01-21T21:57:10.835Z,20.20
2018-01-21T21:59:39.140Z,20.27
2018-01-21T22:02:07.131Z,21.40
2018-01-21T22:04:34.784Z,19.10
2018-01-21T22:07:02.312Z,19.87
2018-01-21T22:09:29.937Z,19.50
2018-01-21T22:11:57.480Z,18.10
2018-01-21T22:14:25.011Z,18.70
2018-01-21T22:16:52.540Z,20.77
2018-01-21T22:19:20.880Z,20.40
2018-01-21T22:21:49.195Z,22.00
2018-01-21T22:24:16.716Z,24.00
2018-01-21T22:26:44.252Z,22.87
2018-01-21T22:29:12.541Z,24.43
2018-01-21T22:31:40.070Z,21.97
2018-01-21T22:34:08.432Z,22.65
2018-01-21T22:36:36.804Z,22.83
2018-01-21T22:39:04.320Z,22.80
2018-01-21T22:41:32.676Z,20.33
2018-01-21T22:44:00.224Z,20.02
2018-01-21T22:46:28.524Z,20.30
2018-01-21T22:48:56.090Z,20.35
2018-01-21T22:51:23.671Z,18.73
2018-01-21T22:53:51.199Z,19.70
2018-01-21T22:56:18.732Z,19.63
2018-01-21T22:58:46.248Z,20.90
2018-01-21T23:01:13.769Z,20.13
2018-01-21T23:03:42.069Z,19.10
2018-01-21T23:06:09.588Z,18.40
2018-01-21T23:08:37.124Z,17.47
2018-01-21T23:11:05.419Z,20.80
2018-01-21T23:13:32.956Z,19.60
2018-01-21T23:16:00.478Z,21.00
2018-01-21T23:18:28.072Z,20.80
2018-01-21T23:21:04.509Z,20.30
2018-01-21T23:23:32.044Z,19.55
2018-01-21T23:25:59.582Z,21.27
2018-01-21T23:28:27.126Z,20.87
2018-01-21T23:30:54.719Z,20.00
2018-01-21T23:33:22.253Z,21.33
2018-01-21T23:35:49.772Z,21.13
2018-01-21T23:38:17.332Z,20.30
2018-01-21T23:40:44.870Z,24.30
2018-01-21T23:43:12.398Z,22.65
2018-01-21T23:45:39.927Z,22.70
2018-01-21T23:48:07.468Z,22.58
2018-01-21T23:50:34.995Z,22.10
2018-01-21T23:53:02.513Z,22.83
2018-01-21T23:55:30.056Z,23.23
2018-01-21T23:57:57.581Z,22.23
